createdAt,value
2022-11-25T00:02:14.112Z,1.42
2022-11-25T00:05:36.347Z,1.50
2022-11-25T00:09:04.738Z,1.23
2022-11-25T00:12:26.888Z,1.77
2022-11-25T00:15:49.020Z,1.50
2022-11-25T00:19:11.945Z,2.00
2022-11-25T00:22:34.224Z,1.60
2022-11-25T00:25:56.399Z,1.65
2022-11-25T00:29:18.537Z,1.67
2022-11-25T00:32:40.710Z,1.92
2022-11-25T00:36:07.812Z,1.80
2022-11-25T00:39:30.242Z,1.27
2022-11-25T00:43:10.976Z,1.80
2022-11-25T00:46:33.260Z,1.17
2022-11-25T00:49:55.520Z,2.13
2022-11-25T00:53:17.688Z,1.40
2022-11-25T00:56:39.901Z,1.80
2022-11-25T01:00:02.558Z,1.25
2022-11-25T01:03:24.738Z,1.50
2022-11-25T01:06:47.940Z,1.70
2022-11-25T01:10:10.556Z,1.58
2022-11-25T01:13:34.398Z,1.58
2022-11-25T01:16:56.845Z,1.40
2022-11-25T01:20:19.044Z,1.42
2022-11-25T01:23:42.395Z,1.67
2022-11-25T01:27:04.702Z,1.45
2022-11-25T01:30:26.943Z,1.02
2022-11-25T01:34:13.179Z,1.65
2022-11-25T01:37:35.391Z,1.02
2022-11-25T01:41:00.192Z,1.40
2022-11-25T01:44:28.526Z,1.60
2022-11-25T01:47:53.308Z,1.50
2022-11-25T01:55:13.689Z,1.63
2022-11-25T01:58:37.982Z,1.40
2022-11-25T02:02:00.888Z,1.63
2022-11-25T02:05:46.209Z,1.48
2022-11-25T02:09:09.262Z,1.23
2022-11-25T02:12:36.842Z,1.67
2022-11-25T02:15:59.104Z,1.27
2022-11-25T02:19:28.608Z,1.27
2022-11-25T02:23:16.236Z,1.60
2022-11-25T02:26:40.362Z,1.17
2022-11-25T02:30:04.309Z,1.27
2022-11-25T02:33:27.607Z,1.48
2022-11-25T02:36:52.639Z,1.08
2022-11-25T02:40:15.176Z,1.10
2022-11-25T02:43:38.295Z,1.55
2022-11-25T02:47:00.539Z,1.30
2022-11-25T02:50:22.956Z,1.25
2022-11-25T02:53:45.666Z,1.20
2022-11-25T02:57:07.966Z,0.85
2022-11-25T03:00:31.338Z,0.85
2022-11-25T03:03:53.708Z,1.42
2022-11-25T03:07:16.017Z,1.30
2022-11-25T03:10:39.496Z,1.45
2022-11-25T03:14:01.949Z,1.30
2022-11-25T03:17:24.269Z,1.17
2022-11-25T03:20:46.554Z,1.05
2022-11-25T03:24:08.897Z,1.10
2022-11-25T03:27:31.143Z,1.20
2022-11-25T03:30:53.879Z,1.17
2022-11-25T03:34:16.105Z,0.90
2022-11-25T03:37:39.343Z,1.23
2022-11-25T03:41:02.721Z,1.30
2022-11-25T03:44:25.260Z,1.30
2022-11-25T03:47:48.040Z,0.98
2022-11-25T03:51:10.367Z,1.17
2022-11-25T03:54:33.768Z,1.30
2022-11-25T03:58:10.314Z,1.38
2022-11-25T04:01:32.722Z,1.40
2022-11-25T04:04:55.176Z,1.45
2022-11-25T04:08:18.474Z,1.30
2022-11-25T04:12:00.422Z,1.77
2022-11-25T04:15:28.395Z,1.20
2022-11-25T04:18:53.088Z,1.17
2022-11-25T04:22:15.306Z,0.95
2022-11-25T04:25:40.401Z,1.10
2022-11-25T04:29:07.472Z,1.23
2022-11-25T04:32:30.481Z,0.98
2022-11-25T04:35:53.620Z,1.17
2022-11-25T04:39:16.205Z,1.52
2022-11-25T04:42:39.815Z,1.13
2022-11-25T04:46:14.938Z,1.00
2022-11-25T04:49:40.758Z,1.40
2022-11-25T04:53:03.075Z,1.10
2022-11-25T04:56:25.676Z,0.93
2022-11-25T04:59:49.551Z,0.85
2022-11-25T05:03:12.147Z,1.20
2022-11-25T05:06:34.830Z,1.05
2022-11-25T05:09:58.338Z,1.05
2022-11-25T05:13:42.422Z,0.90
2022-11-25T05:17:06.728Z,0.90
2022-11-25T05:23:55.960Z,0.70
2022-11-25T05:27:19.803Z,0.70
2022-11-25T05:30:42.579Z,0.90
2022-11-25T05:34:04.973Z,0.88
2022-11-25T05:37:27.336Z,0.82
2022-11-25T05:41:07.507Z,1.00
2022-11-25T05:44:29.696Z,1.13
2022-11-25T05:47:51.948Z,0.68
2022-11-25T05:51:18.564Z,0.85
2022-11-25T05:54:40.890Z,0.50
2022-11-25T05:58:06.180Z,0.90
2022-11-25T06:01:29.268Z,0.80
2022-11-25T06:04:51.641Z,0.77
2022-11-25T06:08:14.056Z,0.75
2022-11-25T06:11:36.575Z,0.85
2022-11-25T06:14:58.797Z,0.90
2022-11-25T06:18:21.556Z,0.90
2022-11-25T06:21:44.643Z,1.13
2022-11-25T06:25:09.088Z,0.65
2022-11-25T06:28:33.304Z,1.00
2022-11-25T06:31:56.010Z,1.08
2022-11-25T06:35:27.260Z,0.85
2022-11-25T06:38:54.167Z,0.60
2022-11-25T06:42:16.424Z,1.30
2022-11-25T06:45:38.620Z,0.90
2022-11-25T06:49:00.932Z,1.00
2022-11-25T06:52:23.119Z,0.75
2022-11-25T06:55:45.376Z,0.80
2022-11-25T06:59:07.788Z,0.75
2022-11-25T07:02:33.313Z,0.88
2022-11-25T07:05:59.366Z,0.80
2022-11-25T07:09:22.453Z,1.10
2022-11-25T07:12:45.060Z,1.00
2022-11-25T07:16:08.078Z,0.80
2022-11-25T07:19:33.324Z,0.80
2022-11-25T07:26:23.129Z,1.15
2022-11-25T07:30:10.720Z,0.80
2022-11-25T07:33:27.599Z,0.90
2022-11-25T07:36:50.850Z,1.13
2022-11-25T07:40:13.491Z,1.33
2022-11-25T07:43:35.811Z,1.35
2022-11-25T07:46:58.005Z,1.00
2022-11-25T07:50:21.544Z,1.38
2022-11-25T07:53:44.309Z,0.98
2022-11-25T07:57:06.469Z,1.52
2022-11-25T08:00:28.639Z,1.23
2022-11-25T08:03:51.927Z,0.90
2022-11-25T08:07:14.247Z,1.08
2022-11-25T08:10:40.472Z,0.90
2022-11-25T08:14:02.855Z,0.95
2022-11-25T08:17:25.184Z,1.48
2022-11-25T08:20:47.476Z,1.23
2022-11-25T08:24:16.229Z,1.23
2022-11-25T08:27:38.456Z,1.10
2022-11-25T08:31:06.242Z,1.05
2022-11-25T08:34:28.456Z,0.98
2022-11-25T08:37:56.033Z,1.20
2022-11-25T08:41:28.773Z,1.08
2022-11-25T08:44:55.641Z,0.90
2022-11-25T08:48:20.157Z,1.23
2022-11-25T08:51:42.669Z,1.15
2022-11-25T08:55:05.420Z,1.10
2022-11-25T08:58:27.650Z,1.02
2022-11-25T09:01:49.931Z,1.27
2022-11-25T09:05:14.696Z,1.00
2022-11-25T09:08:38.504Z,1.17
2022-11-25T09:12:00.785Z,1.00
2022-11-25T09:15:23.212Z,1.33
2022-11-25T09:18:45.768Z,1.20
2022-11-25T09:22:08.086Z,1.02
2022-11-25T09:25:30.530Z,0.98
2022-11-25T09:28:53.145Z,1.00
2022-11-25T09:32:15.621Z,1.08
2022-11-25T09:35:37.800Z,0.80
2022-11-25T09:38:59.979Z,1.15
2022-11-25T09:43:10.319Z,1.27
2022-11-25T09:46:41.700Z,1.00
2022-11-25T09:50:35.920Z,1.33
2022-11-25T09:54:07.848Z,1.25
2022-11-25T09:57:44.485Z,1.00
2022-11-25T10:01:15.620Z,1.13
2022-11-25T10:04:47.193Z,1.30
2022-11-25T10:08:17.684Z,1.23
2022-11-25T10:11:46.704Z,0.80
2022-11-25T10:15:19.190Z,1.15
2022-11-25T10:18:48.752Z,0.73
2022-11-25T10:22:43.889Z,1.20
2022-11-25T10:26:15.291Z,0.85
2022-11-25T10:29:38.483Z,0.85
2022-11-25T10:33:39.547Z,1.10
2022-11-25T10:37:04.905Z,1.00
2022-11-25T10:40:27.100Z,1.13
2022-11-25T10:43:49.732Z,1.00
2022-11-25T10:47:37.553Z,1.30
2022-11-25T10:51:02.747Z,0.90
2022-11-25T10:57:50.431Z,1.00
2022-11-25T11:01:22.969Z,1.02
2022-11-25T11:05:03.154Z,1.20
2022-11-25T11:08:28.964Z,0.90
2022-11-25T11:11:51.193Z,1.17
2022-11-25T11:15:23.083Z,0.80
2022-11-25T11:18:45.341Z,0.95
2022-11-25T11:22:18.147Z,1.08
2022-11-25T11:25:42.561Z,0.98
2022-11-25T11:29:14.411Z,1.30
2022-11-25T11:32:39.484Z,1.00
2022-11-25T11:36:34.772Z,1.25
2022-11-25T11:40:03.055Z,1.03
2022-11-25T11:43:47.108Z,0.77
2022-11-25T11:47:13.723Z,1.05
2022-11-25T11:50:46.129Z,1.17
2022-11-25T11:54:22.625Z,1.35
2022-11-25T11:58:05.371Z,1.25
2022-11-25T12:01:58.687Z,0.90
2022-11-25T12:05:26.562Z,0.80
2022-11-25T12:09:23.197Z,1.08
2022-11-25T12:13:13.569Z,1.15
2022-11-25T12:16:46.566Z,1.40
2022-11-25T12:20:14.669Z,1.13
2022-11-25T12:24:04.371Z,1.10
2022-11-25T12:28:07.103Z,1.25
2022-11-25T12:31:40.313Z,1.52
2022-11-25T12:35:11.678Z,1.48
2022-11-25T12:39:18.416Z,1.10
2022-11-25T12:42:42.299Z,2.13
2022-11-25T12:46:25.091Z,1.73
2022-11-25T12:49:53.968Z,1.50
2022-11-25T12:53:41.767Z,1.65
2022-11-25T12:57:09.811Z,1.42
2022-11-25T13:01:12.701Z,1.42
2022-11-25T13:05:25.543Z,1.40
2022-11-25T13:09:09.761Z,1.45
2022-11-25T13:12:46.809Z,1.70
2022-11-25T13:16:10.501Z,1.38
2022-11-25T13:19:36.908Z,1.50
2022-11-25T13:23:04.962Z,1.00
2022-11-25T13:26:32.002Z,1.63
2022-11-25T13:29:54.975Z,1.42
2022-11-25T13:33:17.131Z,1.38
2022-11-25T13:36:46.579Z,1.33
2022-11-25T13:40:30.884Z,1.48
2022-11-25T13:44:11.903Z,1.27
2022-11-25T13:47:48.052Z,1.27
2022-11-25T13:51:22.289Z,1.25
2022-11-25T13:54:50.334Z,1.35
2022-11-25T13:58:12.512Z,1.58
2022-11-25T14:01:34.664Z,1.25
2022-11-25T14:05:15.825Z,1.50
2022-11-25T14:08:52.702Z,1.50
2022-11-25T14:12:33.500Z,1.70
2022-11-25T14:16:07.601Z,1.05
2022-11-25T14:20:05.465Z,1.55
2022-11-25T14:23:48.920Z,1.40
2022-11-25T14:27:41.818Z,1.63
2022-11-25T14:31:14.711Z,1.30
2022-11-25T14:34:42.639Z,1.13
2022-11-25T14:38:12.179Z,1.65
2022-11-25T14:41:44.332Z,1.13
2022-11-25T14:45:31.188Z,1.13
2022-11-25T14:48:56.605Z,1.25
2022-11-25T14:52:29.237Z,1.10
2022-11-25T14:55:51.437Z,1.20
2022-11-25T14:59:14.644Z,1.00
2022-11-25T15:02:41.396Z,1.08
2022-11-25T15:06:06.330Z,1.15
2022-11-25T15:09:46.540Z,1.08
2022-11-25T15:13:30.540Z,1.13
2022-11-25T15:16:53.375Z,1.10
2022-11-25T15:20:19.677Z,1.10
2022-11-25T15:23:41.954Z,1.10
2022-11-25T15:27:04.215Z,0.98
2022-11-25T15:30:29.474Z,1.08
2022-11-25T15:37:17.306Z,1.30
2022-11-25T15:40:43.045Z,0.90
2022-11-25T15:44:06.640Z,1.17
2022-11-25T15:47:31.685Z,1.33
2022-11-25T15:51:05.153Z,1.55
2022-11-25T15:54:32.937Z,1.13
2022-11-25T15:57:58.981Z,0.77
2022-11-25T16:01:23.381Z,0.90
2022-11-25T16:04:45.589Z,0.90
2022-11-25T16:08:29.565Z,1.02
2022-11-25T16:11:51.916Z,1.00
2022-11-25T16:15:17.733Z,1.00
2022-11-25T16:19:01.327Z,1.10
2022-11-25T16:22:23.825Z,1.00
2022-11-25T16:26:02.087Z,0.80
2022-11-25T16:29:30.357Z,1.05
2022-11-25T16:32:52.562Z,1.00
2022-11-25T16:36:14.774Z,1.10
2022-11-25T16:39:38.859Z,1.10
2022-11-25T16:43:01.509Z,1.10
2022-11-25T16:46:23.778Z,1.13
2022-11-25T16:49:46.586Z,1.08
2022-11-25T16:53:08.903Z,1.02
2022-11-25T16:56:31.596Z,1.02
2022-11-25T16:59:58.681Z,1.15
2022-11-25T17:03:22.131Z,1.50
2022-11-25T17:06:50.590Z,1.23
2022-11-25T17:10:27.055Z,1.50
2022-11-25T17:13:51.992Z,1.88
2022-11-25T17:17:25.811Z,1.33
2022-11-25T17:20:48.948Z,1.35
2022-11-25T17:24:20.992Z,1.42
2022-11-25T17:27:46.099Z,1.20
2022-11-25T17:31:09.765Z,1.42
2022-11-25T17:34:37.813Z,1.38
2022-11-25T17:38:01.899Z,1.15
2022-11-25T17:41:27.724Z,1.10
2022-11-25T17:44:53.031Z,1.55
2022-11-25T17:48:17.930Z,1.80
2022-11-25T17:51:40.121Z,2.10
2022-11-25T17:55:02.322Z,1.90
2022-11-25T17:58:24.464Z,1.88
2022-11-25T18:01:46.760Z,2.30
2022-11-25T18:05:23.963Z,2.33
2022-11-25T18:08:46.255Z,1.73
2022-11-25T18:12:25.013Z,2.47
2022-11-25T18:15:47.876Z,2.30
2022-11-25T18:19:12.836Z,2.53
2022-11-25T18:22:35.079Z,2.38
2022-11-25T18:26:00.941Z,2.47
2022-11-25T18:29:27.172Z,2.85
2022-11-25T18:32:49.437Z,3.00
2022-11-25T18:36:13.937Z,2.63
2022-11-25T18:39:36.277Z,3.28
2022-11-25T18:43:01.462Z,3.20
2022-11-25T18:49:46.689Z,2.97
2022-11-25T18:53:10.910Z,3.25
2022-11-25T18:56:34.012Z,3.40
2022-11-25T19:00:24.450Z,3.10
2022-11-25T19:03:39.273Z,3.20
2022-11-25T19:07:01.689Z,3.05
2022-11-25T19:10:27.297Z,2.83
2022-11-25T19:13:53.252Z,3.03
2022-11-25T19:17:20.506Z,2.95
2022-11-25T19:20:42.743Z,3.72
2022-11-25T19:24:12.919Z,2.97
2022-11-25T19:27:47.364Z,3.47
2022-11-25T19:31:10.870Z,3.13
2022-11-25T19:34:38.383Z,3.40
2022-11-25T19:38:00.869Z,3.40
2022-11-25T19:41:23.041Z,3.13
2022-11-25T19:44:46.609Z,3.30
2022-11-25T19:48:15.157Z,2.72
2022-11-25T19:51:37.455Z,3.72
2022-11-25T19:54:59.743Z,3.20
2022-11-25T19:58:25.577Z,3.58
2022-11-25T20:01:47.979Z,3.30
2022-11-25T20:05:15.623Z,4.18
2022-11-25T20:08:37.760Z,3.75
2022-11-25T20:12:06.989Z,3.38
2022-11-25T20:15:32.865Z,3.50
2022-11-25T20:18:55.094Z,3.25
2022-11-25T20:22:26.585Z,3.60
2022-11-25T20:25:50.070Z,3.83
2022-11-25T20:29:23.612Z,3.40
2022-11-25T20:32:49.809Z,3.55
2022-11-25T20:36:19.002Z,3.70
2022-11-25T20:39:41.972Z,3.80
2022-11-25T20:43:04.503Z,3.58
2022-11-25T20:46:32.155Z,3.35
2022-11-25T20:49:54.389Z,3.55
2022-11-25T20:53:19.137Z,3.47
2022-11-25T20:56:41.337Z,3.67
2022-11-25T21:00:26.243Z,3.60
2022-11-25T21:03:49.743Z,3.23
2022-11-25T21:07:15.579Z,3.30
2022-11-25T21:10:37.895Z,3.78
2022-11-25T21:14:00.437Z,3.85
2022-11-25T21:17:22.612Z,3.65
2022-11-25T21:20:45.152Z,3.30
2022-11-25T21:24:32.214Z,4.05
2022-11-25T21:27:54.445Z,3.72
2022-11-25T21:31:19.230Z,3.72
2022-11-25T21:34:41.463Z,3.75
2022-11-25T21:38:17.716Z,3.13
2022-11-25T21:41:40.141Z,3.80
2022-11-25T21:45:02.396Z,3.65
2022-11-25T21:48:26.500Z,3.80
2022-11-25T21:51:48.865Z,3.60
2022-11-25T21:55:16.045Z,3.58
2022-11-25T21:58:38.887Z,3.38
2022-11-25T22:02:01.127Z,3.58
2022-11-25T22:05:25.791Z,3.53
2022-11-25T22:08:48.091Z,3.58
2022-11-25T22:12:23.748Z,3.55
2022-11-25T22:15:46.753Z,3.65
2022-11-25T22:19:19.564Z,3.67
2022-11-25T22:22:42.846Z,3.40
2022-11-25T22:26:05.577Z,3.20
2022-11-25T22:29:32.895Z,3.03
2022-11-25T22:33:01.615Z,3.65
2022-11-25T22:36:36.647Z,3.25
2022-11-25T22:39:58.822Z,3.28
2022-11-25T22:43:28.576Z,3.67
2022-11-25T22:46:51.924Z,3.78
2022-11-25T22:50:27.052Z,4.07
2022-11-25T22:53:49.195Z,3.22
2022-11-25T22:57:11.342Z,3.70
2022-11-25T23:00:38.351Z,3.47
2022-11-25T23:04:00.649Z,3.65
2022-11-25T23:07:24.160Z,3.38
2022-11-25T23:10:47.472Z,3.20
2022-11-25T23:14:10.095Z,3.88
2022-11-25T23:17:32.473Z,3.22
2022-11-25T23:20:54.920Z,3.60
2022-11-25T23:24:17.399Z,3.45
2022-11-25T23:27:39.708Z,3.45
2022-11-25T23:31:02.555Z,3.25
2022-11-25T23:34:24.856Z,3.35
2022-11-25T23:37:54.206Z,3.30
2022-11-25T23:41:21.439Z,4.03
2022-11-25T23:44:44.366Z,3.22
2022-11-25T23:48:06.923Z,3.55
2022-11-25T23:51:30.199Z,3.38
2022-11-25T23:54:53.238Z,3.65
2022-11-25T23:58:17.411Z,3.38
